createdAt,value
2022-08-07T00:04:46.515Z,100704.88
2022-08-07T00:10:18.996Z,100702.81
2022-08-07T00:15:23.208Z,100706.23
2022-08-07T00:20:35.376Z,100712.11
2022-08-07T00:25:43.692Z,100710.94
2022-08-07T00:30:54.419Z,100711.52
2022-08-07T00:36:04.295Z,100712.61
2022-08-07T00:41:14.704Z,100710.55
2022-08-07T00:46:23.397Z,100707.40
2022-08-07T00:51:58.498Z,100705.33
2022-08-07T00:57:02.066Z,100707.42
2022-08-07T01:02:28.883Z,100710.75
2022-08-07T01:07:39.450Z,100710.88
2022-08-07T01:12:53.715Z,100715.95
2022-08-07T01:18:05.696Z,100715.56
2022-08-07T01:23:21.022Z,100711.66
2022-08-07T01:28:48.380Z,100708.27
2022-08-07T01:34:04.456Z,100706.80
2022-08-07T01:39:16.878Z,100700.41
2022-08-07T01:44:32.049Z,100702.96
2022-08-07T01:49:41.435Z,100705.18
2022-08-07T01:54:48.687Z,100700.36
2022-08-07T02:00:03.231Z,100699.89
2022-08-07T02:05:28.632Z,100702.88
2022-08-07T02:11:06.603Z,100704.61
2022-08-07T02:16:28.649Z,100704.14
2022-08-07T02:21:55.068Z,100701.56
2022-08-07T02:27:04.299Z,100703.07
2022-08-07T02:32:14.579Z,100702.67
2022-08-07T02:37:25.606Z,100703.13
2022-08-07T02:42:35.672Z,100702.87
2022-08-07T02:47:48.902Z,100696.48
2022-08-07T02:53:03.726Z,100695.70
2022-08-07T02:58:19.373Z,100695.79
2022-08-07T03:03:50.102Z,100689.35
2022-08-07T03:09:05.486Z,100691.69
2022-08-07T03:14:15.246Z,100693.84
2022-08-07T03:19:24.445Z,100690.20
2022-08-07T03:24:39.057Z,100689.72
2022-08-07T03:29:51.254Z,100686.95
2022-08-07T03:35:17.781Z,100692.41
2022-08-07T03:40:31.105Z,100707.29
2022-08-07T03:45:48.754Z,100704.54
2022-08-07T03:51:02.005Z,100701.71
2022-08-07T03:56:32.587Z,100701.05
2022-08-07T04:01:47.140Z,100702.91
2022-08-07T04:07:00.146Z,100708.55
2022-08-07T04:12:24.310Z,100714.42
2022-08-07T04:18:56.893Z,100718.42
2022-08-07T04:23:08.447Z,100728.95
2022-08-07T04:28:29.347Z,100729.86
2022-08-07T04:33:38.936Z,100727.24
2022-08-07T04:38:48.146Z,100728.98
2022-08-07T04:44:14.602Z,100727.98
2022-08-07T04:49:38.762Z,100734.71
2022-08-07T04:54:58.130Z,100739.89
2022-08-07T05:00:18.809Z,100738.63
2022-08-07T05:05:53.524Z,100746.36
2022-08-07T05:11:11.692Z,100752.27
2022-08-07T05:16:27.759Z,100755.52
2022-08-07T05:21:59.864Z,100753.31
2022-08-07T05:27:07.671Z,100753.65
2022-08-07T05:32:27.961Z,100758.59
2022-08-07T05:37:40.903Z,100758.40
2022-08-07T05:42:56.031Z,100762.90
2022-08-07T05:48:08.069Z,100764.02
2022-08-07T05:54:12.475Z,100761.75
2022-08-07T05:58:53.267Z,100760.85
2022-08-07T06:04:10.042Z,100762.41
2022-08-07T06:09:22.791Z,100756.13
2022-08-07T06:14:50.947Z,100757.33
2022-08-07T06:20:03.979Z,100759.56
2022-08-07T06:25:15.210Z,100757.73
2022-08-07T06:30:36.213Z,100762.42
2022-08-07T06:36:06.919Z,100765.73
2022-08-07T06:42:02.156Z,100768.58
2022-08-07T06:47:10.680Z,100776.52
2022-08-07T06:52:31.419Z,100774.58
2022-08-07T06:57:56.822Z,100780.42
2022-08-07T07:03:13.642Z,100781.45
2022-08-07T07:08:33.352Z,100778.41
2022-08-07T07:13:58.060Z,100778.00
2022-08-07T07:19:56.920Z,100780.92
2022-08-07T07:24:57.051Z,100778.13
2022-08-07T07:30:14.460Z,100777.38
2022-08-07T07:36:05.690Z,100774.41
2022-08-07T07:41:16.577Z,100780.65
2022-08-07T07:46:37.489Z,100779.64
2022-08-07T07:51:58.328Z,100775.85
2022-08-07T07:57:09.844Z,100776.36
2022-08-07T08:02:22.521Z,100773.18
2022-08-07T08:07:59.858Z,100768.71
2022-08-07T08:13:15.227Z,100766.56
2022-08-07T08:18:29.616Z,100772.73
2022-08-07T08:23:58.288Z,100773.02
2022-08-07T08:29:09.078Z,100770.20
2022-08-07T08:34:27.314Z,100771.10
2022-08-07T08:39:55.235Z,100775.39
2022-08-07T08:45:15.500Z,100778.25
2022-08-07T08:50:34.873Z,100775.33
2022-08-07T08:55:58.804Z,100780.04
2022-08-07T09:01:19.407Z,100782.17
2022-08-07T09:06:40.384Z,100776.27
2022-08-07T09:12:20.044Z,100778.73
2022-08-07T09:17:58.879Z,100773.55
2022-08-07T09:24:53.814Z,100773.66
2022-08-07T09:30:05.169Z,100767.22
2022-08-07T09:34:43.052Z,100774.20
2022-08-07T09:39:57.726Z,100774.54
2022-08-07T09:47:42.358Z,100775.59
2022-08-07T09:51:01.419Z,100771.05
2022-08-07T09:56:41.802Z,100766.29
2022-08-07T10:02:10.937Z,100757.10
2022-08-07T10:07:53.103Z,100749.88
2022-08-07T10:13:55.086Z,100748.75
2022-08-07T10:19:30.199Z,100745.66
2022-08-07T10:24:59.594Z,100736.46
2022-08-07T10:30:13.065Z,100731.86
2022-08-07T10:35:56.258Z,100733.11
2022-08-07T10:41:09.118Z,100720.90
2022-08-07T10:46:26.552Z,100717.09
2022-08-07T10:52:12.964Z,100704.64
2022-08-07T10:57:17.875Z,100702.05
2022-08-07T11:02:49.003Z,100699.71
2022-08-07T11:08:12.444Z,100695.12
2022-08-07T11:14:44.639Z,100682.05
2022-08-07T11:19:07.174Z,100673.73
2022-08-07T11:24:24.104Z,100667.42
2022-08-07T11:29:47.418Z,100679.73
2022-08-07T11:35:03.077Z,100674.34
2022-08-07T11:40:27.613Z,100679.60
2022-08-07T11:45:53.089Z,100684.20
2022-08-07T11:51:44.708Z,100684.86
2022-08-07T11:57:05.347Z,100689.30
2022-08-07T12:02:38.135Z,100687.60
2022-08-07T12:08:11.402Z,100687.20
2022-08-07T12:13:47.509Z,100688.77
2022-08-07T12:18:57.707Z,100686.45
2022-08-07T12:24:37.703Z,100688.65
2022-08-07T12:29:55.275Z,100683.91
2022-08-07T12:35:08.206Z,100687.55
2022-08-07T12:40:46.721Z,100682.52
2022-08-07T12:45:56.408Z,100678.13
2022-08-07T12:51:17.291Z,100669.06
2022-08-07T12:56:27.947Z,100668.70
2022-08-07T13:01:51.392Z,100662.20
2022-08-07T13:08:12.913Z,100667.64
2022-08-07T13:13:47.883Z,100666.45
2022-08-07T13:18:55.589Z,100663.63
2022-08-07T13:24:11.440Z,100661.86
2022-08-07T13:29:25.893Z,100657.47
2022-08-07T13:34:50.886Z,100655.82
2022-08-07T13:40:35.230Z,100655.54
2022-08-07T13:46:11.285Z,100653.16
2022-08-07T13:52:22.672Z,100649.92
2022-08-07T13:57:09.034Z,100649.18
2022-08-07T14:02:33.354Z,100646.95
2022-08-07T14:08:00.864Z,100644.50
2022-08-07T14:13:09.875Z,100638.71
2022-08-07T14:18:28.675Z,100639.48
2022-08-07T14:24:00.005Z,100637.36
2022-08-07T14:30:06.431Z,100634.33
2022-08-07T14:34:45.715Z,100625.52
2022-08-07T14:40:15.654Z,100624.41
2022-08-07T14:45:26.059Z,100621.95
2022-08-07T14:50:57.246Z,100618.33
2022-08-07T14:56:13.291Z,100615.74
2022-08-07T15:01:25.978Z,100617.88
2022-08-07T15:06:52.883Z,100623.83
2022-08-07T15:12:08.506Z,100628.27
2022-08-07T15:17:21.218Z,100629.23
2022-08-07T15:22:33.751Z,100628.77
2022-08-07T15:28:02.095Z,100620.27
2022-08-07T15:33:33.439Z,100617.02
2022-08-07T15:38:59.006Z,100614.38
2022-08-07T15:44:13.024Z,100605.02
2022-08-07T15:50:05.767Z,100603.92
2022-08-07T15:54:57.220Z,100600.69
2022-08-07T16:00:30.988Z,100594.21
2022-08-07T16:05:47.098Z,100591.57
2022-08-07T16:10:59.759Z,100592.64
2022-08-07T16:16:48.249Z,100594.76
2022-08-07T16:22:03.293Z,100595.25
2022-08-07T16:27:40.599Z,100596.23
2022-08-07T16:34:03.398Z,100597.73
2022-08-07T16:39:01.211Z,100595.79
2022-08-07T16:45:14.729Z,100589.02
2022-08-07T16:50:52.572Z,100588.93
2022-08-07T16:56:12.828Z,100591.26
2022-08-07T17:01:41.261Z,100596.27
2022-08-07T17:07:03.202Z,100595.89
2022-08-07T17:12:34.510Z,100598.41
2022-08-07T17:17:55.248Z,100601.27
2022-08-07T17:23:32.572Z,100604.17
2022-08-07T17:29:04.650Z,100612.08
2022-08-07T17:34:35.463Z,100613.10
2022-08-07T17:40:03.428Z,100616.05
2022-08-07T17:45:19.764Z,100617.13
2022-08-07T17:50:47.826Z,100617.50
2022-08-07T17:56:06.619Z,100625.81
2022-08-07T18:01:23.681Z,100632.95
2022-08-07T18:06:44.215Z,100638.22
2022-08-07T18:12:11.867Z,100645.92
2022-08-07T18:18:36.656Z,100650.19
2022-08-07T18:23:35.241Z,100653.89
2022-08-07T18:28:59.124Z,100655.08
2022-08-07T18:34:40.873Z,100659.09
2022-08-07T18:40:42.471Z,100661.27
2022-08-07T18:46:25.120Z,100664.68
2022-08-07T18:52:35.204Z,100677.48
2022-08-07T18:57:30.112Z,100677.89
2022-08-07T19:03:01.433Z,100680.47
2022-08-07T19:08:14.475Z,100681.83
2022-08-07T19:13:39.213Z,100685.25
2022-08-07T19:18:56.706Z,100687.52
2022-08-07T19:24:12.541Z,100694.39
2022-08-07T19:31:01.611Z,100695.34
2022-08-07T19:35:18.690Z,100700.93
2022-08-07T19:40:49.397Z,100700.20
2022-08-07T19:46:08.190Z,100701.02
2022-08-07T19:51:52.392Z,100708.63
2022-08-07T19:58:01.222Z,100707.96
2022-08-07T20:02:39.124Z,100715.76
2022-08-07T20:07:50.775Z,100718.59
2022-08-07T20:13:06.101Z,100719.15
2022-08-07T20:18:19.897Z,100714.61
2022-08-07T20:23:43.373Z,100713.50
2022-08-07T20:29:00.106Z,100719.18
2022-08-07T20:34:10.165Z,100723.54
2022-08-07T20:40:03.240Z,100732.46
2022-08-07T20:44:59.791Z,100731.86
2022-08-07T20:50:10.954Z,100730.49
2022-08-07T20:55:23.569Z,100739.48
2022-08-07T21:00:42.752Z,100737.09
2022-08-07T21:05:56.391Z,100728.50
2022-08-07T21:11:05.589Z,100728.87
2022-08-07T21:16:20.103Z,100727.27
2022-08-07T21:21:56.627Z,100731.63
2022-08-07T21:27:22.039Z,100729.42
2022-08-07T21:32:46.701Z,100734.53
2022-08-07T21:38:11.355Z,100733.35
2022-08-07T21:43:47.417Z,100731.76
2022-08-07T21:49:01.277Z,100729.00
2022-08-07T21:54:21.820Z,100731.35
2022-08-07T22:00:04.673Z,100733.24
2022-08-07T22:05:22.137Z,100727.50
2022-08-07T22:10:51.763Z,100723.08
2022-08-07T22:16:43.091Z,100714.95
2022-08-07T22:22:02.836Z,100721.59
2022-08-07T22:27:19.145Z,100728.58
2022-08-07T22:32:39.119Z,100724.70
2022-08-07T22:38:01.833Z,100718.50
2022-08-07T22:43:17.928Z,100718.91
2022-08-07T22:49:02.237Z,100716.51
2022-08-07T22:54:50.973Z,100720.66
2022-08-07T23:00:13.238Z,100716.71
2022-08-07T23:06:07.731Z,100716.50
2022-08-07T23:11:41.212Z,100716.41
2022-08-07T23:17:05.362Z,100715.27
2022-08-07T23:22:32.203Z,100711.14
2022-08-07T23:28:21.792Z,100712.52
2022-08-07T23:34:35.329Z,100716.42
2022-08-07T23:39:48.717Z,100720.65
2022-08-07T23:45:33.188Z,100721.20
2022-08-07T23:50:54.475Z,100723.35
2022-08-07T23:56:12.792Z,100725.69
